sensor_id;sensor_type;location;lat;lon;timestamp;pressure;altitude;pressure_sealevel;temperature;humidity
78613;BME280;67933;51.060;3.638;2023-07-20T00:01:43;101675.06;;;14.07;98.29
78613;BME280;67933;51.060;3.638;2023-07-20T00:04:10;101674.81;;;13.96;98.51
78613;BME280;67933;51.060;3.638;2023-07-20T00:06:35;101680.88;;;13.84;98.36
78613;BME280;67933;51.060;3.638;2023-07-20T00:09:01;101680.38;;;13.77;99.02
78613;BME280;67933;51.060;3.638;2023-07-20T00:11:27;101693.97;;;13.73;99.18
78613;BME280;67933;51.060;3.638;2023-07-20T00:13:53;101680.69;;;13.71;99.83
78613;BME280;67933;51.060;3.638;2023-07-20T00:16:18;101682.00;;;13.80;99.87
78613;BME280;67933;51.060;3.638;2023-07-20T00:18:44;101693.06;;;13.88;100.00
78613;BME280;67933;51.060;3.638;2023-07-20T00:21:09;101680.47;;;13.76;99.91
78613;BME280;67933;51.060;3.638;2023-07-20T00:23:34;101691.91;;;13.78;100.00
78613;BME280;67933;51.060;3.638;2023-07-20T00:26:00;101686.22;;;13.68;100.00
78613;BME280;67933;51.060;3.638;2023-07-20T00:28:25;101684.34;;;13.55;100.00
78613;BME280;67933;51.060;3.638;2023-07-20T00:30:51;101689.84;;;13.52;99.87
78613;BME280;67933;51.060;3.638;2023-07-20T00:33:17;101691.31;;;13.41;99.71
78613;BME280;67933;51.060;3.638;2023-07-20T00:35:43;101687.44;;;13.31;100.00
78613;BME280;67933;51.060;3.638;2023-07-20T00:38:09;101693.09;;;13.25;99.84
78613;BME280;67933;51.060;3.638;2023-07-20T00:40:38;101691.56;;;13.21;100.00
78613;BME280;67933;51.060;3.638;2023-07-20T00:43:04;101688.97;;;13.20;100.00
78613;BME280;67933;51.060;3.638;2023-07-20T00:45:31;101690.78;;;13.19;100.00
78613;BME280;67933;51.060;3.638;2023-07-20T00:47:58;101693.50;;;13.18;100.00
78613;BME280;67933;51.060;3.638;2023-07-20T00:50:24;101690.00;;;13.17;100.00
78613;BME280;67933;51.060;3.638;2023-07-20T00:52:50;101684.84;;;13.14;100.00
78613;BME280;67933;51.060;3.638;2023-07-20T00:55:16;101693.03;;;13.09;100.00
78613;BME280;67933;51.060;3.638;2023-07-20T00:57:41;101693.31;;;13.05;100.00
78613;BME280;67933;51.060;3.638;2023-07-20T01:00:07;101689.06;;;13.01;100.00
78613;BME280;67933;51.060;3.638;2023-07-20T01:02:33;101691.91;;;12.98;100.00
78613;BME280;67933;51.060;3.638;2023-07-20T01:04:59;101687.69;;;12.94;100.00
78613;BME280;67933;51.060;3.638;2023-07-20T01:07:32;101688.03;;;12.88;100.00
78613;BME280;67933;51.060;3.638;2023-07-20T01:10:36;101693.34;;;12.88;100.00
78613;BME280;67933;51.060;3.638;2023-07-20T01:13:06;101700.72;;;12.83;100.00
78613;BME280;67933;51.060;3.638;2023-07-20T01:15:33;101696.03;;;12.70;100.00
78613;BME280;67933;51.060;3.638;2023-07-20T01:17:59;101705.16;;;12.66;100.00
78613;BME280;67933;51.060;3.638;2023-07-20T01:20:26;101706.09;;;12.65;100.00
78613;BME280;67933;51.060;3.638;2023-07-20T01:29:03;101689.25;;;12.48;100.00
78613;BME280;67933;51.060;3.638;2023-07-20T01:31:36;101696.78;;;12.40;100.00
78613;BME280;67933;51.060;3.638;2023-07-20T01:34:03;101692.66;;;12.34;100.00
78613;BME280;67933;51.060;3.638;2023-07-20T01:36:33;101703.69;;;12.26;100.00
78613;BME280;67933;51.060;3.638;2023-07-20T01:38:59;101696.88;;;12.21;100.00
78613;BME280;67933;51.060;3.638;2023-07-20T01:41:25;101691.69;;;12.18;100.00
78613;BME280;67933;51.060;3.638;2023-07-20T01:43:51;101694.34;;;12.18;100.00
78613;BME280;67933;51.060;3.638;2023-07-20T01:46:16;101694.59;;;12.13;100.00
78613;BME280;67933;51.060;3.638;2023-07-20T01:48:41;101691.16;;;12.11;100.00
78613;BME280;67933;51.060;3.638;2023-07-20T01:51:07;101691.28;;;12.08;100.00
78613;BME280;67933;51.060;3.638;2023-07-20T01:53:32;101686.84;;;12.09;100.00
78613;BME280;67933;51.060;3.638;2023-07-20T01:55:58;101684.34;;;12.06;100.00
78613;BME280;67933;51.060;3.638;2023-07-20T01:58:23;101686.94;;;12.07;100.00
78613;BME280;67933;51.060;3.638;2023-07-20T02:00:49;101685.44;;;12.02;100.00
78613;BME280;67933;51.060;3.638;2023-07-20T02:03:15;101692.66;;;12.00;100.00
78613;BME280;67933;51.060;3.638;2023-07-20T02:05:44;101694.34;;;12.01;100.00
78613;BME280;67933;51.060;3.638;2023-07-20T02:08:10;101692.94;;;12.11;100.00
78613;BME280;67933;51.060;3.638;2023-07-20T02:10:35;101692.09;;;12.27;100.00
78613;BME280;67933;51.060;3.638;2023-07-20T02:13:01;101696.31;;;12.31;100.00
78613;BME280;67933;51.060;3.638;2023-07-20T02:15:26;101685.91;;;12.27;100.00
78613;BME280;67933;51.060;3.638;2023-07-20T02:17:52;101694.50;;;12.32;100.00
78613;BME280;67933;51.060;3.638;2023-07-20T02:20:18;101701.25;;;12.39;100.00
78613;BME280;67933;51.060;3.638;2023-07-20T02:22:44;101698.28;;;12.45;100.00
78613;BME280;67933;51.060;3.638;2023-07-20T02:25:10;101701.41;;;12.53;100.00
78613;BME280;67933;51.060;3.638;2023-07-20T02:27:37;101695.69;;;12.61;100.00
78613;BME280;67933;51.060;3.638;2023-07-20T02:30:03;101699.56;;;12.71;100.00
78613;BME280;67933;51.060;3.638;2023-07-20T02:32:29;101704.53;;;12.94;100.00
78613;BME280;67933;51.060;3.638;2023-07-20T02:34:55;101702.94;;;13.07;100.00
78613;BME280;67933;51.060;3.638;2023-07-20T02:37:20;101695.16;;;13.20;100.00
78613;BME280;67933;51.060;3.638;2023-07-20T02:39:46;101695.69;;;13.27;100.00
78613;BME280;67933;51.060;3.638;2023-07-20T02:42:11;101695.34;;;13.33;100.00
78613;BME280;67933;51.060;3.638;2023-07-20T02:44:36;101702.16;;;13.38;100.00
78613;BME280;67933;51.060;3.638;2023-07-20T02:47:02;101704.28;;;13.47;100.00
78613;BME280;67933;51.060;3.638;2023-07-20T02:49:27;101700.66;;;13.48;100.00
78613;BME280;67933;51.060;3.638;2023-07-20T02:51:53;101698.94;;;13.47;100.00
78613;BME280;67933;51.060;3.638;2023-07-20T02:54:19;101698.44;;;13.57;100.00
78613;BME280;67933;51.060;3.638;2023-07-20T02:56:44;101696.56;;;13.59;100.00
78613;BME280;67933;51.060;3.638;2023-07-20T02:59:10;101698.28;;;13.60;100.00
78613;BME280;67933;51.060;3.638;2023-07-20T03:01:35;101695.78;;;13.57;100.00
78613;BME280;67933;51.060;3.638;2023-07-20T03:04:01;101697.69;;;13.55;100.00
78613;BME280;67933;51.060;3.638;2023-07-20T03:06:27;101700.25;;;13.56;100.00
78613;BME280;67933;51.060;3.638;2023-07-20T03:08:53;101699.22;;;13.59;100.00
78613;BME280;67933;51.060;3.638;2023-07-20T03:11:19;101706.09;;;13.63;100.00
78613;BME280;67933;51.060;3.638;2023-07-20T03:13:46;101712.03;;;13.68;100.00
78613;BME280;67933;51.060;3.638;2023-07-20T03:16:12;101713.41;;;13.75;100.00
78613;BME280;67933;51.060;3.638;2023-07-20T03:18:41;101716.66;;;13.80;100.00
78613;BME280;67933;51.060;3.638;2023-07-20T03:21:09;101717.34;;;13.83;100.00
78613;BME280;67933;51.060;3.638;2023-07-20T03:23:39;101708.56;;;13.81;100.00
78613;BME280;67933;51.060;3.638;2023-07-20T03:26:05;101713.81;;;13.83;100.00
78613;BME280;67933;51.060;3.638;2023-07-20T03:28:34;101713.03;;;13.81;100.00
78613;BME280;67933;51.060;3.638;2023-07-20T03:30:59;101714.19;;;13.77;100.00
78613;BME280;67933;51.060;3.638;2023-07-20T03:33:26;101720.47;;;13.76;100.00
78613;BME280;67933;51.060;3.638;2023-07-20T03:35:52;101716.84;;;13.77;100.00
78613;BME280;67933;51.060;3.638;2023-07-20T03:38:18;101712.03;;;13.83;100.00
78613;BME280;67933;51.060;3.638;2023-07-20T03:43:15;101712.16;;;13.96;100.00
78613;BME280;67933;51.060;3.638;2023-07-20T03:45:41;101709.41;;;13.98;100.00
78613;BME280;67933;51.060;3.638;2023-07-20T03:48:06;101713.72;;;14.00;100.00
78613;BME280;67933;51.060;3.638;2023-07-20T03:50:32;101708.19;;;14.03;100.00
78613;BME280;67933;51.060;3.638;2023-07-20T03:52:58;101719.81;;;14.02;100.00
78613;BME280;67933;51.060;3.638;2023-07-20T03:55:23;101716.72;;;13.94;100.00
78613;BME280;67933;51.060;3.638;2023-07-20T03:57:49;101728.53;;;13.90;100.00
78613;BME280;67933;51.060;3.638;2023-07-20T04:00:16;101723.03;;;13.93;100.00
78613;BME280;67933;51.060;3.638;2023-07-20T04:02:42;101712.16;;;13.96;100.00
78613;BME280;67933;51.060;3.638;2023-07-20T04:05:07;101717.41;;;13.98;100.00
78613;BME280;67933;51.060;3.638;2023-07-20T04:07:33;101710.63;;;13.92;100.00
78613;BME280;67933;51.060;3.638;2023-07-20T04:09:59;101708.91;;;13.91;100.00
78613;BME280;67933;51.060;3.638;2023-07-20T04:12:24;101712.53;;;13.90;100.00
78613;BME280;67933;51.060;3.638;2023-07-20T04:14:51;101701.06;;;13.88;100.00
78613;BME280;67933;51.060;3.638;2023-07-20T04:17:17;101717.09;;;13.88;100.00
78613;BME280;67933;51.060;3.638;2023-07-20T04:19:43;101712.69;;;13.87;100.00
78613;BME280;67933;51.060;3.638;2023-07-20T04:22:09;101716.22;;;13.87;100.00
78613;BME280;67933;51.060;3.638;2023-07-20T04:24:34;101708.72;;;13.94;100.00
78613;BME280;67933;51.060;3.638;2023-07-20T04:27:00;101720.53;;;13.90;100.00
78613;BME280;67933;51.060;3.638;2023-07-20T04:29:25;101717.84;;;13.90;100.00
78613;BME280;67933;51.060;3.638;2023-07-20T04:31:50;101707.19;;;13.90;100.00
78613;BME280;67933;51.060;3.638;2023-07-20T04:34:16;101714.25;;;13.91;100.00
78613;BME280;67933;51.060;3.638;2023-07-20T04:36:41;101713.22;;;13.94;100.00
78613;BME280;67933;51.060;3.638;2023-07-20T04:39:07;101704.16;;;13.96;100.00
78613;BME280;67933;51.060;3.638;2023-07-20T04:41:33;101719.81;;;14.02;100.00
78613;BME280;67933;51.060;3.638;2023-07-20T04:43:59;101719.56;;;14.07;100.00
78613;BME280;67933;51.060;3.638;2023-07-20T04:46:24;101712.22;;;14.10;100.00
78613;BME280;67933;51.060;3.638;2023-07-20T04:48:50;101715.66;;;14.12;100.00
78613;BME280;67933;51.060;3.638;2023-07-20T04:51:15;101714.56;;;14.16;100.00
78613;BME280;67933;51.060;3.638;2023-07-20T04:53:42;101711.22;;;14.27;100.00
78613;BME280;67933;51.060;3.638;2023-07-20T04:56:08;101717.06;;;14.34;100.00
78613;BME280;67933;51.060;3.638;2023-07-20T04:58:33;101715.16;;;14.36;100.00
78613;BME280;67933;51.060;3.638;2023-07-20T05:00:58;101712.66;;;14.33;100.00
78613;BME280;67933;51.060;3.638;2023-07-20T05:03:24;101723.25;;;14.34;100.00
78613;BME280;67933;51.060;3.638;2023-07-20T05:05:49;101706.59;;;14.31;100.00
78613;BME280;67933;51.060;3.638;2023-07-20T05:08:15;101713.44;;;14.35;100.00
78613;BME280;67933;51.060;3.638;2023-07-20T05:10:41;101716.84;;;14.38;100.00
78613;BME280;67933;51.060;3.638;2023-07-20T05:13:07;101715.16;;;14.51;100.00
78613;BME280;67933;51.060;3.638;2023-07-20T05:15:33;101719.06;;;14.60;100.00
78613;BME280;67933;51.060;3.638;2023-07-20T05:17:59;101706.97;;;14.69;100.00
78613;BME280;67933;51.060;3.638;2023-07-20T05:20:25;101711.66;;;14.79;100.00
78613;BME280;67933;51.060;3.638;2023-07-20T05:22:51;101705.56;;;14.91;100.00
78613;BME280;67933;51.060;3.638;2023-07-20T05:25:18;101707.94;;;15.10;100.00
78613;BME280;67933;51.060;3.638;2023-07-20T05:27:45;101709.94;;;15.21;100.00
78613;BME280;67933;51.060;3.638;2023-07-20T05:30:11;101712.03;;;15.30;100.00
78613;BME280;67933;51.060;3.638;2023-07-20T05:32:37;101722.06;;;15.40;99.27
78613;BME280;67933;51.060;3.638;2023-07-20T05:35:02;101710.38;;;15.41;99.84
78613;BME280;67933;51.060;3.638;2023-07-20T05:37:28;101704.53;;;15.49;100.00
78613;BME280;67933;51.060;3.638;2023-07-20T05:39:53;101705.53;;;15.62;99.48
78613;BME280;67933;51.060;3.638;2023-07-20T05:42:19;101701.66;;;15.66;98.19
78613;BME280;67933;51.060;3.638;2023-07-20T05:44:44;101706.84;;;15.69;98.95
78613;BME280;67933;51.060;3.638;2023-07-20T05:47:10;101711.78;;;15.75;98.81
78613;BME280;67933;51.060;3.638;2023-07-20T05:49:35;101704.28;;;15.81;99.87
78613;BME280;67933;51.060;3.638;2023-07-20T05:52:01;101705.72;;;15.86;98.32
78613;BME280;67933;51.060;3.638;2023-07-20T05:54:27;101697.38;;;15.91;96.03
78613;BME280;67933;51.060;3.638;2023-07-20T05:56:53;101708.84;;;15.93;96.45
78613;BME280;67933;51.060;3.638;2023-07-20T05:59:19;101708.44;;;15.99;97.01
78613;BME280;67933;51.060;3.638;2023-07-20T06:01:45;101712.78;;;16.14;95.05
78613;BME280;67933;51.060;3.638;2023-07-20T06:04:10;101710.03;;;16.28;95.40
78613;BME280;67933;51.060;3.638;2023-07-20T06:06:36;101708.53;;;16.37;94.19
78613;BME280;67933;51.060;3.638;2023-07-20T06:09:02;101704.38;;;16.45;94.42
78613;BME280;67933;51.060;3.638;2023-07-20T06:11:32;101705.66;;;16.52;91.39
78613;BME280;67933;51.060;3.638;2023-07-20T06:13:59;101705.41;;;16.70;91.41
78613;BME280;67933;51.060;3.638;2023-07-20T06:16:24;101708.94;;;16.70;90.93
78613;BME280;67933;51.060;3.638;2023-07-20T06:18:49;101703.25;;;16.75;91.52
78613;BME280;67933;51.060;3.638;2023-07-20T06:21:15;101706.50;;;16.80;90.86
78613;BME280;67933;51.060;3.638;2023-07-20T06:23:41;101701.66;;;16.85;92.44
78613;BME280;67933;51.060;3.638;2023-07-20T06:26:07;101707.09;;;16.96;93.67
78613;BME280;67933;51.060;3.638;2023-07-20T06:28:33;101712.06;;;17.02;93.60
78613;BME280;67933;51.060;3.638;2023-07-20T06:31:02;101704.75;;;17.04;91.38
78613;BME280;67933;51.060;3.638;2023-07-20T06:33:28;101715.13;;;17.21;90.79
78613;BME280;67933;51.060;3.638;2023-07-20T06:35:53;101709.41;;;17.39;91.92
78613;BME280;67933;51.060;3.638;2023-07-20T06:38:19;101713.31;;;17.58;89.37
78613;BME280;67933;51.060;3.638;2023-07-20T06:40:48;101717.19;;;17.67;85.74
78613;BME280;67933;51.060;3.638;2023-07-20T06:43:13;101724.84;;;17.84;85.53
78613;BME280;67933;51.060;3.638;2023-07-20T06:45:39;101719.84;;;18.03;86.48
78613;BME280;67933;51.060;3.638;2023-07-20T06:48:05;101717.84;;;18.18;82.29
78613;BME280;67933;51.060;3.638;2023-07-20T06:50:30;101733.75;;;18.32;84.85
78613;BME280;67933;51.060;3.638;2023-07-20T06:52:55;101726.56;;;18.44;84.72
78613;BME280;67933;51.060;3.638;2023-07-20T06:55:21;101735.53;;;18.56;83.76
78613;BME280;67933;51.060;3.638;2023-07-20T06:57:46;101725.75;;;18.55;82.78
78613;BME280;67933;51.060;3.638;2023-07-20T07:00:12;101727.09;;;18.49;83.16
78613;BME280;67933;51.060;3.638;2023-07-20T07:02:38;101727.19;;;18.71;82.54
78613;BME280;67933;51.060;3.638;2023-07-20T07:05:04;101732.97;;;18.89;81.10
78613;BME280;67933;51.060;3.638;2023-07-20T07:07:30;101731.38;;;19.09;79.93
78613;BME280;67933;51.060;3.638;2023-07-20T07:09:56;101730.53;;;19.19;78.12
78613;BME280;67933;51.060;3.638;2023-07-20T07:12:21;101735.31;;;19.27;78.50
78613;BME280;67933;51.060;3.638;2023-07-20T07:14:47;101740.44;;;19.41;76.47
78613;BME280;67933;51.060;3.638;2023-07-20T07:17:12;101731.28;;;19.55;72.26
78613;BME280;67933;51.060;3.638;2023-07-20T07:19:37;101730.38;;;19.77;70.10
78613;BME280;67933;51.060;3.638;2023-07-20T07:22:04;101736.41;;;20.12;73.96
78613;BME280;67933;51.060;3.638;2023-07-20T07:24:29;101742.66;;;20.13;71.91
78613;BME280;67933;51.060;3.638;2023-07-20T07:26:59;101735.56;;;20.01;70.54
78613;BME280;67933;51.060;3.638;2023-07-20T07:29:25;101738.69;;;20.17;69.74
78613;BME280;67933;51.060;3.638;2023-07-20T07:31:51;101743.44;;;20.35;68.61
78613;BME280;67933;51.060;3.638;2023-07-20T07:34:16;101732.59;;;20.47;65.97
78613;BME280;67933;51.060;3.638;2023-07-20T07:36:43;101734.19;;;21.52;68.77
78613;BME280;67933;51.060;3.638;2023-07-20T07:39:08;101729.50;;;21.54;62.30
78613;BME280;67933;51.060;3.638;2023-07-20T07:41:34;101728.84;;;21.80;63.49
78613;BME280;67933;51.060;3.638;2023-07-20T07:44:00;101724.09;;;22.32;60.26
78613;BME280;67933;51.060;3.638;2023-07-20T07:46:25;101716.59;;;22.92;58.30
78613;BME280;67933;51.060;3.638;2023-07-20T07:48:50;101726.28;;;22.94;60.30
78613;BME280;67933;51.060;3.638;2023-07-20T07:51:16;101729.19;;;22.54;59.24
78613;BME280;67933;51.060;3.638;2023-07-20T07:53:41;101732.00;;;22.72;60.74
78613;BME280;67933;51.060;3.638;2023-07-20T07:56:07;101731.56;;;23.88;57.40
78613;BME280;67933;51.060;3.638;2023-07-20T07:58:33;101734.50;;;24.22;58.97
78613;BME280;67933;51.060;3.638;2023-07-20T08:00:59;101733.81;;;25.41;51.33
78613;BME280;67933;51.060;3.638;2023-07-20T08:03:24;101736.72;;;24.62;50.42
78613;BME280;67933;51.060;3.638;2023-07-20T08:05:50;101735.59;;;23.84;53.12
78613;BME280;67933;51.060;3.638;2023-07-20T08:08:15;101738.50;;;23.45;54.38
78613;BME280;67933;51.060;3.638;2023-07-20T08:10:41;101733.91;;;22.52;59.22
78613;BME280;67933;51.060;3.638;2023-07-20T08:13:06;101740.69;;;21.89;61.21
78613;BME280;67933;51.060;3.638;2023-07-20T08:15:31;101749.44;;;21.72;59.95
78613;BME280;67933;51.060;3.638;2023-07-20T08:17:57;101743.19;;;21.71;56.45
78613;BME280;67933;51.060;3.638;2023-07-20T08:20:22;101742.44;;;22.38;56.42
78613;BME280;67933;51.060;3.638;2023-07-20T08:22:52;101741.41;;;22.87;55.17
78613;BME280;67933;51.060;3.638;2023-07-20T08:25:18;101733.06;;;23.08;56.45
78613;BME280;67933;51.060;3.638;2023-07-20T08:27:43;101733.75;;;23.20;53.38
78613;BME280;67933;51.060;3.638;2023-07-20T08:30:11;101734.38;;;23.41;53.57
78613;BME280;67933;51.060;3.638;2023-07-20T08:32:36;101732.84;;;23.66;53.40
78613;BME280;67933;51.060;3.638;2023-07-20T08:35:02;101735.56;;;23.66;56.74
78613;BME280;67933;51.060;3.638;2023-07-20T08:37:27;101743.34;;;23.41;55.76
78613;BME280;67933;51.060;3.638;2023-07-20T08:39:53;101738.69;;;23.34;56.28
78613;BME280;67933;51.060;3.638;2023-07-20T08:42:18;101735.25;;;23.32;55.52
78613;BME280;67933;51.060;3.638;2023-07-20T08:44:45;101740.28;;;23.64;52.56
78613;BME280;67933;51.060;3.638;2023-07-20T08:47:12;101741.53;;;23.32;53.65
78613;BME280;67933;51.060;3.638;2023-07-20T08:49:39;101736.72;;;23.26;52.36
78613;BME280;67933;51.060;3.638;2023-07-20T08:52:05;101740.31;;;22.51;53.24
78613;BME280;67933;51.060;3.638;2023-07-20T08:54:31;101732.34;;;23.16;52.93
78613;BME280;67933;51.060;3.638;2023-07-20T08:57:04;101733.50;;;23.50;50.78
78613;BME280;67933;51.060;3.638;2023-07-20T08:59:30;101721.81;;;23.50;51.83
78613;BME280;67933;51.060;3.638;2023-07-20T09:01:58;101731.03;;;23.84;51.24
78613;BME280;67933;51.060;3.638;2023-07-20T09:04:24;101724.44;;;23.69;51.54
78613;BME280;67933;51.060;3.638;2023-07-20T09:06:50;101729.53;;;23.45;51.87
78613;BME280;67933;51.060;3.638;2023-07-20T09:09:16;101725.09;;;23.44;52.32
78613;BME280;67933;51.060;3.638;2023-07-20T09:11:41;101718.69;;;23.72;53.80
78613;BME280;67933;51.060;3.638;2023-07-20T09:14:08;101728.22;;;24.39;50.83
78613;BME280;67933;51.060;3.638;2023-07-20T09:16:54;101730.66;;;24.93;47.91
78613;BME280;67933;51.060;3.638;2023-07-20T09:19:20;101723.81;;;24.38;49.08
78613;BME280;67933;51.060;3.638;2023-07-20T09:21:47;101726.00;;;23.62;50.90
78613;BME280;67933;51.060;3.638;2023-07-20T09:24:13;101725.50;;;24.39;52.65
78613;BME280;67933;51.060;3.638;2023-07-20T09:26:43;101726.78;;;23.99;51.88
78613;BME280;67933;51.060;3.638;2023-07-20T09:29:09;101720.69;;;23.42;49.51
78613;BME280;67933;51.060;3.638;2023-07-20T09:31:35;101719.25;;;23.11;52.06
78613;BME280;67933;51.060;3.638;2023-07-20T09:34:01;101724.75;;;22.73;53.16
78613;BME280;67933;51.060;3.638;2023-07-20T09:36:27;101720.44;;;22.99;55.83
78613;BME280;67933;51.060;3.638;2023-07-20T09:38:53;101727.91;;;22.78;52.56
78613;BME280;67933;51.060;3.638;2023-07-20T09:41:19;101719.78;;;22.68;52.91
78613;BME280;67933;51.060;3.638;2023-07-20T09:43:45;101726.34;;;22.75;51.36
78613;BME280;67933;51.060;3.638;2023-07-20T09:46:11;101712.69;;;22.48;50.04
78613;BME280;67933;51.060;3.638;2023-07-20T09:48:36;101720.94;;;22.46;49.71
78613;BME280;67933;51.060;3.638;2023-07-20T09:51:03;101719.50;;;22.61;49.91
78613;BME280;67933;51.060;3.638;2023-07-20T09:53:32;101717.66;;;22.81;48.72
78613;BME280;67933;51.060;3.638;2023-07-20T09:55:58;101715.44;;;23.04;48.91
78613;BME280;67933;51.060;3.638;2023-07-20T09:58:26;101717.75;;;23.63;46.87
78613;BME280;67933;51.060;3.638;2023-07-20T10:00:51;101709.28;;;24.90;44.31
78613;BME280;67933;51.060;3.638;2023-07-20T10:03:21;101708.38;;;25.08;44.09
78613;BME280;67933;51.060;3.638;2023-07-20T10:06:06;101705.47;;;24.40;45.27
78613;BME280;67933;51.060;3.638;2023-07-20T10:08:36;101706.88;;;24.44;46.20
78613;BME280;67933;51.060;3.638;2023-07-20T10:11:04;101700.69;;;24.51;45.49
78613;BME280;67933;51.060;3.638;2023-07-20T10:13:30;101716.19;;;24.24;46.24
78613;BME280;67933;51.060;3.638;2023-07-20T10:16:02;101705.91;;;24.27;46.55
78613;BME280;67933;51.060;3.638;2023-07-20T10:18:55;101710.50;;;24.78;45.54
78613;BME280;67933;51.060;3.638;2023-07-20T10:21:24;101700.53;;;25.05;46.60
78613;BME280;67933;51.060;3.638;2023-07-20T10:23:50;101707.38;;;26.01;43.60
78613;BME280;67933;51.060;3.638;2023-07-20T10:26:16;101693.72;;;27.53;45.18
78613;BME280;67933;51.060;3.638;2023-07-20T10:28:41;101691.81;;;27.62;38.52
78613;BME280;67933;51.060;3.638;2023-07-20T10:31:13;101690.56;;;27.26;39.45
78613;BME280;67933;51.060;3.638;2023-07-20T10:33:38;101679.97;;;26.83;40.82
78613;BME280;67933;51.060;3.638;2023-07-20T10:36:05;101688.28;;;26.98;38.69
78613;BME280;67933;51.060;3.638;2023-07-20T10:43:44;101688.75;;;24.70;43.85
78613;BME280;67933;51.060;3.638;2023-07-20T10:46:13;101688.72;;;24.62;43.49
78613;BME280;67933;51.060;3.638;2023-07-20T10:49:03;101686.50;;;24.40;46.87
78613;BME280;67933;51.060;3.638;2023-07-20T10:51:30;101677.91;;;24.27;46.46
78613;BME280;67933;51.060;3.638;2023-07-20T10:54:02;101670.94;;;24.68;49.00
78613;BME280;67933;51.060;3.638;2023-07-20T10:56:27;101671.16;;;24.74;48.50
78613;BME280;67933;51.060;3.638;2023-07-20T10:59:00;101668.81;;;24.53;47.06
78613;BME280;67933;51.060;3.638;2023-07-20T11:01:30;101676.66;;;24.03;44.93
78613;BME280;67933;51.060;3.638;2023-07-20T11:03:58;101680.53;;;24.01;48.47
78613;BME280;67933;51.060;3.638;2023-07-20T11:11:29;101667.31;;;22.98;52.16
78613;BME280;67933;51.060;3.638;2023-07-20T11:13:59;101672.75;;;22.88;54.34
78613;BME280;67933;51.060;3.638;2023-07-20T11:16:42;101661.66;;;22.72;50.96
78613;BME280;67933;51.060;3.638;2023-07-20T11:19:24;101666.97;;;22.54;50.83
78613;BME280;67933;51.060;3.638;2023-07-20T11:21:52;101668.47;;;22.30;55.12
78613;BME280;67933;51.060;3.638;2023-07-20T11:24:18;101656.25;;;21.97;52.19
78613;BME280;67933;51.060;3.638;2023-07-20T11:29:16;101657.50;;;22.02;51.75
78613;BME280;67933;51.060;3.638;2023-07-20T11:31:42;101655.81;;;22.20;56.07
78613;BME280;67933;51.060;3.638;2023-07-20T11:34:11;101661.75;;;22.24;53.71
78613;BME280;67933;51.060;3.638;2023-07-20T11:36:39;101656.09;;;22.17;51.63
78613;BME280;67933;51.060;3.638;2023-07-20T11:39:08;101654.38;;;22.16;56.56
78613;BME280;67933;51.060;3.638;2023-07-20T11:41:34;101659.94;;;22.05;55.63
78613;BME280;67933;51.060;3.638;2023-07-20T11:43:59;101663.47;;;22.15;53.80
78613;BME280;67933;51.060;3.638;2023-07-20T11:46:25;101656.53;;;22.13;53.35
78613;BME280;67933;51.060;3.638;2023-07-20T11:48:57;101654.09;;;22.10;52.21
78613;BME280;67933;51.060;3.638;2023-07-20T11:51:23;101653.81;;;22.13;51.50
78613;BME280;67933;51.060;3.638;2023-07-20T11:53:49;101654.38;;;22.16;54.08
78613;BME280;67933;51.060;3.638;2023-07-20T11:56:15;101652.78;;;22.43;55.67
78613;BME280;67933;51.060;3.638;2023-07-20T11:58:44;101641.47;;;22.67;50.85
78613;BME280;67933;51.060;3.638;2023-07-20T12:01:11;101647.94;;;23.48;49.79
78613;BME280;67933;51.060;3.638;2023-07-20T12:03:36;101652.34;;;23.76;49.49
78613;BME280;67933;51.060;3.638;2023-07-20T12:06:11;101637.03;;;23.67;47.55
78613;BME280;67933;51.060;3.638;2023-07-20T12:08:41;101640.16;;;23.62;47.80
78613;BME280;67933;51.060;3.638;2023-07-20T12:11:07;101629.28;;;23.72;46.33
78613;BME280;67933;51.060;3.638;2023-07-20T12:13:40;101635.25;;;23.75;46.26
78613;BME280;67933;51.060;3.638;2023-07-20T12:18:37;101632.44;;;25.40;40.28
78613;BME280;67933;51.060;3.638;2023-07-20T12:21:02;101631.84;;;24.86;43.37
78613;BME280;67933;51.060;3.638;2023-07-20T12:23:35;101622.00;;;25.70;42.67
78613;BME280;67933;51.060;3.638;2023-07-20T12:26:02;101621.53;;;26.47;40.40
78613;BME280;67933;51.060;3.638;2023-07-20T12:28:28;101622.28;;;26.72;42.08
78613;BME280;67933;51.060;3.638;2023-07-20T12:30:55;101620.72;;;27.33;41.53
78613;BME280;67933;51.060;3.638;2023-07-20T12:33:23;101621.09;;;27.52;40.80
78613;BME280;67933;51.060;3.638;2023-07-20T12:35:49;101621.56;;;27.33;40.54
78613;BME280;67933;51.060;3.638;2023-07-20T12:38:15;101615.94;;;26.88;41.56
78613;BME280;67933;51.060;3.638;2023-07-20T12:40:41;101613.53;;;27.09;40.11
78613;BME280;67933;51.060;3.638;2023-07-20T12:43:07;101619.09;;;26.60;38.59
78613;BME280;67933;51.060;3.638;2023-07-20T12:45:33;101614.88;;;26.33;39.07
78613;BME280;67933;51.060;3.638;2023-07-20T12:47:58;101608.56;;;26.41;37.78
78613;BME280;67933;51.060;3.638;2023-07-20T12:50:24;101618.47;;;26.26;39.15
78613;BME280;67933;51.060;3.638;2023-07-20T12:52:49;101618.41;;;25.11;41.27
78613;BME280;67933;51.060;3.638;2023-07-20T12:55:15;101609.31;;;24.60;41.11
78613;BME280;67933;51.060;3.638;2023-07-20T12:57:40;101604.19;;;24.83;43.70
78613;BME280;67933;51.060;3.638;2023-07-20T13:00:08;101606.13;;;24.65;40.93
78613;BME280;67933;51.060;3.638;2023-07-20T13:02:34;101601.78;;;24.46;43.04
78613;BME280;67933;51.060;3.638;2023-07-20T13:05:00;101598.84;;;23.96;40.83
78613;BME280;67933;51.060;3.638;2023-07-20T13:07:36;101592.88;;;23.92;42.76